sensor_id;sensor_type;location;lat;lon;timestamp;P1;durP1;ratioP1;P2;durP2;ratioP2
48647;SDS011;34437;-33.956;151.076;2023-02-15T00:00:44;3.92;;;1.30;;
48647;SDS011;34437;-33.956;151.076;2023-02-15T00:03:06;3.38;;;1.40;;
48647;SDS011;34437;-33.956;151.076;2023-02-15T00:05:30;5.53;;;1.58;;
48647;SDS011;34437;-33.956;151.076;2023-02-15T00:07:55;5.05;;;1.70;;
48647;SDS011;34437;-33.956;151.076;2023-02-15T00:10:18;1.63;;;0.90;;
48647;SDS011;34437;-33.956;151.076;2023-02-15T00:12:40;2.95;;;1.30;;
48647;SDS011;34437;-33.956;151.076;2023-02-15T00:15:02;2.20;;;1.00;;
48647;SDS011;34437;-33.956;151.076;2023-02-15T00:17:28;3.67;;;1.08;;
48647;SDS011;34437;-33.956;151.076;2023-02-15T00:19:51;2.50;;;1.10;;
48647;SDS011;34437;-33.956;151.076;2023-02-15T00:22:13;4.85;;;2.00;;
48647;SDS011;34437;-33.956;151.076;2023-02-15T00:24:36;3.10;;;1.25;;
48647;SDS011;34437;-33.956;151.076;2023-02-15T00:26:58;3.88;;;1.13;;
48647;SDS011;34437;-33.956;151.076;2023-02-15T00:29:20;4.28;;;1.85;;
48647;SDS011;34437;-33.956;151.076;2023-02-15T00:31:43;4.85;;;1.33;;
48647;SDS011;34437;-33.956;151.076;2023-02-15T00:34:13;5.07;;;1.67;;
48647;SDS011;34437;-33.956;151.076;2023-02-15T00:36:37;3.92;;;1.42;;
48647;SDS011;34437;-33.956;151.076;2023-02-15T00:39:00;6.07;;;1.90;;
48647;SDS011;34437;-33.956;151.076;2023-02-15T00:41:22;5.72;;;1.75;;
48647;SDS011;34437;-33.956;151.076;2023-02-15T00:43:45;5.25;;;1.80;;
48647;SDS011;34437;-33.956;151.076;2023-02-15T00:46:10;3.40;;;1.75;;
48647;SDS011;34437;-33.956;151.076;2023-02-15T00:48:33;6.35;;;1.80;;
48647;SDS011;34437;-33.956;151.076;2023-02-15T00:50:56;3.75;;;1.67;;
48647;SDS011;34437;-33.956;151.076;2023-02-15T00:53:20;7.38;;;2.42;;
48647;SDS011;34437;-33.956;151.076;2023-02-15T00:55:43;5.43;;;2.08;;
48647;SDS011;34437;-33.956;151.076;2023-02-15T00:58:06;5.30;;;1.90;;
48647;SDS011;34437;-33.956;151.076;2023-02-15T01:00:29;4.20;;;1.80;;
48647;SDS011;34437;-33.956;151.076;2023-02-15T01:02:51;8.38;;;2.65;;
48647;SDS011;34437;-33.956;151.076;2023-02-15T01:05:17;10.38;;;2.40;;
48647;SDS011;34437;-33.956;151.076;2023-02-15T01:07:42;5.57;;;2.10;;
48647;SDS011;34437;-33.956;151.076;2023-02-15T01:10:05;3.45;;;1.85;;
48647;SDS011;34437;-33.956;151.076;2023-02-15T01:12:28;5.43;;;1.85;;
48647;SDS011;34437;-33.956;151.076;2023-02-15T01:14:50;4.70;;;2.08;;
48647;SDS011;34437;-33.956;151.076;2023-02-15T01:17:13;4.35;;;2.00;;
48647;SDS011;34437;-33.956;151.076;2023-02-15T01:19:35;4.68;;;2.22;;
48647;SDS011;34437;-33.956;151.076;2023-02-15T01:21:58;6.35;;;2.28;;
48647;SDS011;34437;-33.956;151.076;2023-02-15T01:24:20;6.10;;;2.70;;
48647;SDS011;34437;-33.956;151.076;2023-02-15T01:26:42;4.72;;;2.22;;
48647;SDS011;34437;-33.956;151.076;2023-02-15T01:29:05;5.43;;;3.00;;
48647;SDS011;34437;-33.956;151.076;2023-02-15T01:31:27;5.72;;;3.28;;
48647;SDS011;34437;-33.956;151.076;2023-02-15T01:33:50;5.38;;;3.50;;
48647;SDS011;34437;-33.956;151.076;2023-02-15T01:36:12;5.90;;;3.45;;
48647;SDS011;34437;-33.956;151.076;2023-02-15T01:38:35;5.38;;;3.22;;
48647;SDS011;34437;-33.956;151.076;2023-02-15T01:40:57;5.43;;;2.92;;
48647;SDS011;34437;-33.956;151.076;2023-02-15T01:43:39;4.75;;;3.08;;
48647;SDS011;34437;-33.956;151.076;2023-02-15T01:46:09;5.55;;;3.40;;
48647;SDS011;34437;-33.956;151.076;2023-02-15T01:48:34;4.20;;;2.90;;
48647;SDS011;34437;-33.956;151.076;2023-02-15T01:51:02;5.18;;;2.80;;
48647;SDS011;34437;-33.956;151.076;2023-02-15T01:53:34;5.90;;;2.58;;
48647;SDS011;34437;-33.956;151.076;2023-02-15T01:56:41;6.47;;;2.95;;
48647;SDS011;34437;-33.956;151.076;2023-02-15T01:59:00;6.30;;;2.97;;
48647;SDS011;34437;-33.956;151.076;2023-02-15T02:01:38;6.00;;;2.65;;
48647;SDS011;34437;-33.956;151.076;2023-02-15T02:06:27;4.47;;;2.75;;
48647;SDS011;34437;-33.956;151.076;2023-02-15T02:08:51;8.13;;;2.80;;
48647;SDS011;34437;-33.956;151.076;2023-02-15T02:13:36;4.55;;;2.50;;
48647;SDS011;34437;-33.956;151.076;2023-02-15T02:16:02;5.25;;;2.10;;
48647;SDS011;34437;-33.956;151.076;2023-02-15T02:19:03;2.97;;;1.85;;
48647;SDS011;34437;-33.956;151.076;2023-02-15T02:24:31;3.40;;;2.10;;
48647;SDS011;34437;-33.956;151.076;2023-02-15T02:35:19;3.08;;;2.03;;
48647;SDS011;34437;-33.956;151.076;2023-02-15T02:42:49;3.42;;;1.77;;
48647;SDS011;34437;-33.956;151.076;2023-02-15T02:48:16;5.70;;;1.92;;
48647;SDS011;34437;-33.956;151.076;2023-02-15T02:50:39;2.55;;;1.30;;
48647;SDS011;34437;-33.956;151.076;2023-02-15T02:53:02;2.80;;;1.55;;
48647;SDS011;34437;-33.956;151.076;2023-02-15T02:55:31;4.95;;;1.70;;
48647;SDS011;34437;-33.956;151.076;2023-02-15T02:58:09;2.17;;;1.50;;
48647;SDS011;34437;-33.956;151.076;2023-02-15T03:00:56;2.67;;;1.88;;
48647;SDS011;34437;-33.956;151.076;2023-02-15T03:03:34;2.25;;;1.52;;
48647;SDS011;34437;-33.956;151.076;2023-02-15T03:06:03;3.90;;;1.65;;
48647;SDS011;34437;-33.956;151.076;2023-02-15T03:08:42;4.00;;;1.77;;
48647;SDS011;34437;-33.956;151.076;2023-02-15T03:11:08;3.45;;;1.60;;
48647;SDS011;34437;-33.956;151.076;2023-02-15T03:13:32;3.65;;;1.50;;
48647;SDS011;34437;-33.956;151.076;2023-02-15T03:15:55;1.98;;;1.35;;
48647;SDS011;34437;-33.956;151.076;2023-02-15T03:18:38;3.83;;;1.60;;
48647;SDS011;34437;-33.956;151.076;2023-02-15T03:21:13;3.15;;;1.70;;
48647;SDS011;34437;-33.956;151.076;2023-02-15T03:23:42;3.47;;;1.73;;
48647;SDS011;34437;-33.956;151.076;2023-02-15T03:26:05;4.07;;;1.77;;
48647;SDS011;34437;-33.956;151.076;2023-02-15T03:28:33;3.10;;;1.50;;
48647;SDS011;34437;-33.956;151.076;2023-02-15T03:31:04;2.70;;;1.63;;
48647;SDS011;34437;-33.956;151.076;2023-02-15T03:33:28;3.42;;;1.20;;
48647;SDS011;34437;-33.956;151.076;2023-02-15T03:38:28;3.60;;;1.48;;
48647;SDS011;34437;-33.956;151.076;2023-02-15T03:41:02;2.78;;;1.20;;
48647;SDS011;34437;-33.956;151.076;2023-02-15T03:49:17;3.40;;;1.35;;
48647;SDS011;34437;-33.956;151.076;2023-02-15T03:51:42;3.00;;;1.60;;
48647;SDS011;34437;-33.956;151.076;2023-02-15T03:54:12;5.13;;;1.75;;
48647;SDS011;34437;-33.956;151.076;2023-02-15T03:57:00;5.00;;;1.65;;
48647;SDS011;34437;-33.956;151.076;2023-02-15T03:59:41;6.70;;;1.92;;
48647;SDS011;34437;-33.956;151.076;2023-02-15T04:02:23;5.35;;;1.95;;
48647;SDS011;34437;-33.956;151.076;2023-02-15T04:04:52;4.47;;;2.20;;
48647;SDS011;34437;-33.956;151.076;2023-02-15T04:07:14;5.22;;;2.13;;
48647;SDS011;34437;-33.956;151.076;2023-02-15T04:09:37;4.22;;;2.03;;
48647;SDS011;34437;-33.956;151.076;2023-02-15T04:12:17;3.88;;;2.00;;
48647;SDS011;34437;-33.956;151.076;2023-02-15T04:14:40;4.75;;;2.08;;
48647;SDS011;34437;-33.956;151.076;2023-02-15T04:17:20;3.33;;;1.55;;
48647;SDS011;34437;-33.956;151.076;2023-02-15T04:19:43;5.60;;;1.73;;
48647;SDS011;34437;-33.956;151.076;2023-02-15T04:22:23;4.13;;;1.60;;
48647;SDS011;34437;-33.956;151.076;2023-02-15T04:25:04;3.28;;;1.77;;
48647;SDS011;34437;-33.956;151.076;2023-02-15T04:27:36;4.32;;;1.73;;
48647;SDS011;34437;-33.956;151.076;2023-02-15T04:29:58;5.25;;;1.95;;
48647;SDS011;34437;-33.956;151.076;2023-02-15T04:32:21;4.25;;;1.88;;
48647;SDS011;34437;-33.956;151.076;2023-02-15T04:34:43;2.78;;;1.55;;
48647;SDS011;34437;-33.956;151.076;2023-02-15T04:37:06;3.75;;;2.05;;
48647;SDS011;34437;-33.956;151.076;2023-02-15T04:39:28;5.13;;;1.45;;
48647;SDS011;34437;-33.956;151.076;2023-02-15T04:41:50;2.88;;;1.48;;
48647;SDS011;34437;-33.956;151.076;2023-02-15T04:44:13;5.03;;;2.08;;
48647;SDS011;34437;-33.956;151.076;2023-02-15T04:46:35;2.70;;;1.17;;
48647;SDS011;34437;-33.956;151.076;2023-02-15T04:55:31;3.85;;;1.45;;
48647;SDS011;34437;-33.956;151.076;2023-02-15T04:57:54;4.43;;;2.15;;
48647;SDS011;34437;-33.956;151.076;2023-02-15T05:00:17;3.67;;;1.50;;
48647;SDS011;34437;-33.956;151.076;2023-02-15T05:02:40;3.43;;;1.50;;
48647;SDS011;34437;-33.956;151.076;2023-02-15T05:05:02;5.18;;;1.85;;
48647;SDS011;34437;-33.956;151.076;2023-02-15T05:07:25;6.70;;;1.25;;
48647;SDS011;34437;-33.956;151.076;2023-02-15T05:09:47;5.53;;;2.17;;
48647;SDS011;34437;-33.956;151.076;2023-02-15T05:12:10;2.83;;;1.63;;
48647;SDS011;34437;-33.956;151.076;2023-02-15T05:14:32;2.85;;;1.40;;
48647;SDS011;34437;-33.956;151.076;2023-02-15T05:16:55;3.80;;;1.70;;
48647;SDS011;34437;-33.956;151.076;2023-02-15T05:19:19;2.70;;;1.48;;
48647;SDS011;34437;-33.956;151.076;2023-02-15T05:21:43;3.58;;;1.60;;
48647;SDS011;34437;-33.956;151.076;2023-02-15T05:24:06;3.33;;;1.27;;
48647;SDS011;34437;-33.956;151.076;2023-02-15T05:26:48;3.97;;;1.60;;
48647;SDS011;34437;-33.956;151.076;2023-02-15T05:29:29;5.63;;;1.42;;
48647;SDS011;34437;-33.956;151.076;2023-02-15T05:31:51;4.15;;;1.33;;
48647;SDS011;34437;-33.956;151.076;2023-02-15T05:34:14;5.20;;;1.40;;
48647;SDS011;34437;-33.956;151.076;2023-02-15T05:36:36;3.83;;;1.58;;
48647;SDS011;34437;-33.956;151.076;2023-02-15T05:38:58;4.38;;;1.50;;
48647;SDS011;34437;-33.956;151.076;2023-02-15T05:41:21;3.33;;;1.50;;
48647;SDS011;34437;-33.956;151.076;2023-02-15T05:43:43;3.60;;;1.58;;
48647;SDS011;34437;-33.956;151.076;2023-02-15T05:46:06;3.28;;;1.52;;
48647;SDS011;34437;-33.956;151.076;2023-02-15T05:48:29;3.78;;;1.52;;
48647;SDS011;34437;-33.956;151.076;2023-02-15T05:50:59;3.15;;;1.35;;
48647;SDS011;34437;-33.956;151.076;2023-02-15T05:53:24;4.97;;;1.60;;
48647;SDS011;34437;-33.956;151.076;2023-02-15T05:55:47;2.13;;;1.38;;
48647;SDS011;34437;-33.956;151.076;2023-02-15T05:58:09;3.85;;;1.90;;
48647;SDS011;34437;-33.956;151.076;2023-02-15T06:00:32;4.18;;;1.40;;
48647;SDS011;34437;-33.956;151.076;2023-02-15T06:02:54;3.33;;;1.90;;
48647;SDS011;34437;-33.956;151.076;2023-02-15T06:05:17;8.65;;;4.25;;
48647;SDS011;34437;-33.956;151.076;2023-02-15T06:07:42;6.75;;;5.55;;
48647;SDS011;34437;-33.956;151.076;2023-02-15T06:10:05;9.82;;;8.57;;
48647;SDS011;34437;-33.956;151.076;2023-02-15T06:12:28;11.18;;;10.07;;
48647;SDS011;34437;-33.956;151.076;2023-02-15T06:14:51;12.82;;;11.52;;
48647;SDS011;34437;-33.956;151.076;2023-02-15T06:17:14;14.32;;;12.40;;
48647;SDS011;34437;-33.956;151.076;2023-02-15T06:19:37;14.68;;;13.20;;
48647;SDS011;34437;-33.956;151.076;2023-02-15T06:22:00;15.00;;;13.52;;
48647;SDS011;34437;-33.956;151.076;2023-02-15T06:24:22;15.38;;;13.77;;
48647;SDS011;34437;-33.956;151.076;2023-02-15T06:26:44;15.18;;;13.68;;
48647;SDS011;34437;-33.956;151.076;2023-02-15T06:29:07;16.75;;;15.05;;
48647;SDS011;34437;-33.956;151.076;2023-02-15T06:31:29;17.05;;;15.35;;
48647;SDS011;34437;-33.956;151.076;2023-02-15T06:33:52;18.35;;;16.58;;
48647;SDS011;34437;-33.956;151.076;2023-02-15T06:36:21;19.25;;;17.45;;
48647;SDS011;34437;-33.956;151.076;2023-02-15T06:38:43;19.63;;;17.73;;
48647;SDS011;34437;-33.956;151.076;2023-02-15T06:41:06;19.27;;;17.48;;
48647;SDS011;34437;-33.956;151.076;2023-02-15T06:43:28;19.33;;;17.52;;
48647;SDS011;34437;-33.956;151.076;2023-02-15T06:45:51;18.25;;;16.55;;
48647;SDS011;34437;-33.956;151.076;2023-02-15T06:48:13;18.23;;;16.48;;
48647;SDS011;34437;-33.956;151.076;2023-02-15T06:50:36;17.52;;;15.65;;
48647;SDS011;34437;-33.956;151.076;2023-02-15T06:52:58;17.58;;;15.60;;
48647;SDS011;34437;-33.956;151.076;2023-02-15T06:55:21;16.05;;;14.35;;
48647;SDS011;34437;-33.956;151.076;2023-02-15T06:57:43;14.63;;;13.13;;
48647;SDS011;34437;-33.956;151.076;2023-02-15T07:00:06;14.25;;;12.88;;
48647;SDS011;34437;-33.956;151.076;2023-02-15T07:02:29;13.27;;;11.97;;
48647;SDS011;34437;-33.956;151.076;2023-02-15T07:04:52;11.82;;;10.68;;
48647;SDS011;34437;-33.956;151.076;2023-02-15T07:07:14;11.02;;;9.85;;
48647;SDS011;34437;-33.956;151.076;2023-02-15T07:09:37;11.57;;;10.20;;
48647;SDS011;34437;-33.956;151.076;2023-02-15T07:12:00;14.05;;;8.57;;
48647;SDS011;34437;-33.956;151.076;2023-02-15T07:14:40;9.73;;;8.82;;
48647;SDS011;34437;-33.956;151.076;2023-02-15T07:17:02;8.70;;;7.80;;
48647;SDS011;34437;-33.956;151.076;2023-02-15T07:19:25;8.10;;;7.30;;
48647;SDS011;34437;-33.956;151.076;2023-02-15T07:21:47;9.15;;;7.25;;
48647;SDS011;34437;-33.956;151.076;2023-02-15T07:24:10;8.93;;;7.55;;
48647;SDS011;34437;-33.956;151.076;2023-02-15T07:26:32;9.32;;;7.38;;
48647;SDS011;34437;-33.956;151.076;2023-02-15T07:28:55;8.60;;;6.93;;
48647;SDS011;34437;-33.956;151.076;2023-02-15T07:31:17;8.57;;;6.78;;
48647;SDS011;34437;-33.956;151.076;2023-02-15T07:33:40;7.47;;;6.68;;
48647;SDS011;34437;-33.956;151.076;2023-02-15T07:36:03;9.60;;;8.30;;
48647;SDS011;34437;-33.956;151.076;2023-02-15T07:38:26;9.40;;;8.00;;
48647;SDS011;34437;-33.956;151.076;2023-02-15T07:41:00;9.10;;;8.00;;
48647;SDS011;34437;-33.956;151.076;2023-02-15T07:43:23;8.77;;;7.88;;
48647;SDS011;34437;-33.956;151.076;2023-02-15T07:45:46;10.50;;;8.60;;
48647;SDS011;34437;-33.956;151.076;2023-02-15T07:48:08;10.63;;;8.35;;
48647;SDS011;34437;-33.956;151.076;2023-02-15T07:50:31;14.82;;;9.68;;
48647;SDS011;34437;-33.956;151.076;2023-02-15T07:52:53;12.48;;;10.05;;
48647;SDS011;34437;-33.956;151.076;2023-02-15T07:55:19;12.25;;;9.43;;
48647;SDS011;34437;-33.956;151.076;2023-02-15T07:57:43;11.43;;;9.18;;
48647;SDS011;34437;-33.956;151.076;2023-02-15T08:00:06;10.77;;;9.68;;
48647;SDS011;34437;-33.956;151.076;2023-02-15T08:02:29;11.38;;;9.20;;
48647;SDS011;34437;-33.956;151.076;2023-02-15T08:04:51;11.60;;;10.35;;
48647;SDS011;34437;-33.956;151.076;2023-02-15T08:07:14;10.70;;;9.60;;
48647;SDS011;34437;-33.956;151.076;2023-02-15T08:09:36;10.48;;;9.38;;
48647;SDS011;34437;-33.956;151.076;2023-02-15T08:11:59;11.73;;;9.50;;
48647;SDS011;34437;-33.956;151.076;2023-02-15T08:14:22;10.73;;;8.80;;
48647;SDS011;34437;-33.956;151.076;2023-02-15T08:16:48;8.80;;;6.90;;
48647;SDS011;34437;-33.956;151.076;2023-02-15T08:19:21;10.60;;;7.73;;
48647;SDS011;34437;-33.956;151.076;2023-02-15T08:21:47;9.52;;;6.78;;
48647;SDS011;34437;-33.956;151.076;2023-02-15T08:26:43;7.70;;;5.70;;
48647;SDS011;34437;-33.956;151.076;2023-02-15T08:29:09;6.22;;;5.20;;
48647;SDS011;34437;-33.956;151.076;2023-02-15T08:31:32;9.50;;;6.50;;
48647;SDS011;34437;-33.956;151.076;2023-02-15T08:33:55;10.90;;;6.03;;
48647;SDS011;34437;-33.956;151.076;2023-02-15T08:36:19;7.82;;;5.32;;
48647;SDS011;34437;-33.956;151.076;2023-02-15T08:38:44;8.60;;;5.25;;
48647;SDS011;34437;-33.956;151.076;2023-02-15T08:41:17;7.73;;;4.57;;
48647;SDS011;34437;-33.956;151.076;2023-02-15T08:43:42;8.27;;;4.93;;
48647;SDS011;34437;-33.956;151.076;2023-02-15T08:46:05;6.25;;;4.22;;
48647;SDS011;34437;-33.956;151.076;2023-02-15T08:48:28;6.93;;;3.80;;
48647;SDS011;34437;-33.956;151.076;2023-02-15T08:50:50;6.25;;;3.53;;
48647;SDS011;34437;-33.956;151.076;2023-02-15T08:53:13;9.88;;;4.03;;
48647;SDS011;34437;-33.956;151.076;2023-02-15T08:55:36;5.47;;;3.58;;
48647;SDS011;34437;-33.956;151.076;2023-02-15T08:58:00;4.28;;;3.05;;
48647;SDS011;34437;-33.956;151.076;2023-02-15T09:00:22;5.68;;;3.35;;
48647;SDS011;34437;-33.956;151.076;2023-02-15T09:02:46;5.40;;;3.33;;
48647;SDS011;34437;-33.956;151.076;2023-02-15T09:05:08;6.55;;;3.38;;
48647;SDS011;34437;-33.956;151.076;2023-02-15T09:07:30;6.00;;;3.20;;
48647;SDS011;34437;-33.956;151.076;2023-02-15T09:09:53;4.53;;;3.28;;
48647;SDS011;34437;-33.956;151.076;2023-02-15T09:12:15;4.13;;;2.88;;
48647;SDS011;34437;-33.956;151.076;2023-02-15T09:14:38;6.13;;;3.30;;
48647;SDS011;34437;-33.956;151.076;2023-02-15T09:17:00;4.90;;;3.03;;
48647;SDS011;34437;-33.956;151.076;2023-02-15T09:19:23;5.53;;;3.42;;
48647;SDS011;34437;-33.956;151.076;2023-02-15T09:21:46;6.10;;;3.75;;
48647;SDS011;34437;-33.956;151.076;2023-02-15T09:24:09;4.50;;;3.20;;
48647;SDS011;34437;-33.956;151.076;2023-02-15T09:26:34;9.70;;;3.95;;
48647;SDS011;34437;-33.956;151.076;2023-02-15T09:28:59;5.43;;;3.03;;
48647;SDS011;34437;-33.956;151.076;2023-02-15T09:31:25;5.10;;;3.10;;
48647;SDS011;34437;-33.956;151.076;2023-02-15T09:33:49;5.38;;;3.15;;
48647;SDS011;34437;-33.956;151.076;2023-02-15T09:36:25;4.78;;;2.90;;
48647;SDS011;34437;-33.956;151.076;2023-02-15T09:38:56;3.85;;;2.90;;
48647;SDS011;34437;-33.956;151.076;2023-02-15T09:55:24;3.55;;;2.50;;
48647;SDS011;34437;-33.956;151.076;2023-02-15T09:58:05;4.22;;;3.00;;
48647;SDS011;34437;-33.956;151.076;2023-02-15T10:00:43;4.65;;;2.78;;
48647;SDS011;34437;-33.956;151.076;2023-02-15T10:03:19;5.05;;;3.00;;
48647;SDS011;34437;-33.956;151.076;2023-02-15T10:11:02;4.30;;;2.50;;
48647;SDS011;34437;-33.956;151.076;2023-02-15T10:23:41;4.28;;;2.25;;
48647;SDS011;34437;-33.956;151.076;2023-02-15T10:25:58;4.30;;;2.00;;
48647;SDS011;34437;-33.956;151.076;2023-02-15T10:31:26;3.33;;;1.88;;
48647;SDS011;34437;-33.956;151.076;2023-02-15T10:34:09;3.58;;;1.75;;
48647;SDS011;34437;-33.956;151.076;2023-02-15T10:39:06;2.78;;;1.55;;
48647;SDS011;34437;-33.956;151.076;2023-02-15T10:47:12;2.83;;;1.60;;
48647;SDS011;34437;-33.956;151.076;2023-02-15T10:55:25;1.88;;;1.20;;
48647;SDS011;34437;-33.956;151.076;2023-02-15T10:58:37;2.70;;;1.27;;
48647;SDS011;34437;-33.956;151.076;2023-02-15T11:01:22;2.30;;;1.30;;
48647;SDS011;34437;-33.956;151.076;2023-02-15T11:06:47;1.55;;;1.20;;
48647;SDS011;34437;-33.956;151.076;2023-02-15T11:09:19;2.42;;;1.33;;
48647;SDS011;34437;-33.956;151.076;2023-02-15T11:11:47;2.42;;;1.20;;
48647;SDS011;34437;-33.956;151.076;2023-02-15T11:16:54;1.40;;;1.10;;
48647;SDS011;34437;-33.956;151.076;2023-02-15T11:19:28;1.73;;;1.17;;
48647;SDS011;34437;-33.956;151.076;2023-02-15T11:22:00;1.05;;;0.80;;
48647;SDS011;34437;-33.956;151.076;2023-02-15T11:24:26;1.92;;;1.00;;
48647;SDS011;34437;-33.956;151.076;2023-02-15T11:26:54;2.55;;;1.40;;
48647;SDS011;34437;-33.956;151.076;2023-02-15T11:32:12;4.15;;;1.60;;
48647;SDS011;34437;-33.956;151.076;2023-02-15T11:35:03;6.40;;;2.15;;
48647;SDS011;34437;-33.956;151.076;2023-02-15T11:43:11;5.75;;;1.20;;
48647;SDS011;34437;-33.956;151.076;2023-02-15T11:48:05;3.28;;;0.93;;
48647;SDS011;34437;-33.956;151.076;2023-02-15T11:50:32;2.72;;;1.15;;
48647;SDS011;34437;-33.956;151.076;2023-02-15T11:52:56;2.78;;;0.90;;
48647;SDS011;34437;-33.956;151.076;2023-02-15T11:55:25;3.45;;;1.20;;
48647;SDS011;34437;-33.956;151.076;2023-02-15T12:00:49;2.92;;;1.58;;
48647;SDS011;34437;-33.956;151.076;2023-02-15T12:06:00;2.78;;;1.38;;
48647;SDS011;34437;-33.956;151.076;2023-02-15T12:08:25;3.22;;;1.50;;
48647;SDS011;34437;-33.956;151.076;2023-02-15T12:11:06;3.72;;;1.30;;
48647;SDS011;34437;-33.956;151.076;2023-02-15T12:13:33;6.47;;;1.52;;
48647;SDS011;34437;-33.956;151.076;2023-02-15T12:15:55;8.55;;;2.15;;
48647;SDS011;34437;-33.956;151.076;2023-02-15T12:20:51;3.90;;;1.30;;
48647;SDS011;34437;-33.956;151.076;2023-02-15T12:23:16;4.57;;;1.20;;
48647;SDS011;34437;-33.956;151.076;2023-02-15T12:25:41;1.98;;;1.27;;
48647;SDS011;34437;-33.956;151.076;2023-02-15T12:30:59;2.58;;;0.73;;
48647;SDS011;34437;-33.956;151.076;2023-02-15T12:35:57;2.27;;;0.90;;
48647;SDS011;34437;-33.956;151.076;2023-02-15T12:38:36;5.22;;;1.33;;
48647;SDS011;34437;-33.956;151.076;2023-02-15T12:41:03;2.70;;;0.67;;
48647;SDS011;34437;-33.956;151.076;2023-02-15T12:43:41;2.80;;;0.88;;
48647;SDS011;34437;-33.956;151.076;2023-02-15T12:48:43;4.95;;;1.20;;
48647;SDS011;34437;-33.956;151.076;2023-02-15T12:51:13;2.60;;;0.77;;
48647;SDS011;34437;-33.956;151.076;2023-02-15T12:53:36;4.30;;;1.15;;
48647;SDS011;34437;-33.956;151.076;2023-02-15T12:56:00;4.18;;;1.13;;
48647;SDS011;34437;-33.956;151.076;2023-02-15T12:58:28;9.23;;;1.17;;
48647;SDS011;34437;-33.956;151.076;2023-02-15T13:01:09;10.45;;;1.52;;
48647;SDS011;34437;-33.956;151.076;2023-02-15T13:03:34;6.50;;;1.55;;
48647;SDS011;34437;-33.956;151.076;2023-02-15T13:05:59;6.78;;;1.45;;
48647;SDS011;34437;-33.956;151.076;2023-02-15T13:10:56;3.65;;;1.23;;
48647;SDS011;34437;-33.956;151.076;2023-02-15T13:13:27;2.58;;;1.27;;
48647;SDS011;34437;-33.956;151.076;2023-02-15T13:15:52;4.25;;;1.52;;
48647;SDS011;34437;-33.956;151.076;2023-02-15T13:18:39;3.53;;;1.23;;
48647;SDS011;34437;-33.956;151.076;2023-02-15T13:21:10;6.32;;;1.40;;
48647;SDS011;34437;-33.956;151.076;2023-02-15T13:23:45;4.35;;;1.42;;
48647;SDS011;34437;-33.956;151.076;2023-02-15T13:26:21;2.42;;;1.00;;
48647;SDS011;34437;-33.956;151.076;2023-02-15T13:28:51;3.92;;;1.27;;
48647;SDS011;34437;-33.956;151.076;2023-02-15T13:31:20;2.92;;;0.93;;
48647;SDS011;34437;-33.956;151.076;2023-02-15T13:36:54;2.70;;;1.17;;
48647;SDS011;34437;-33.956;151.076;2023-02-15T13:52:24;4.50;;;1.40;;
48647;SDS011;34437;-33.956;151.076;2023-02-15T13:58:01;4.28;;;1.27;;
48647;SDS011;34437;-33.956;151.076;2023-02-15T14:00:21;2.17;;;1.10;;
48647;SDS011;34437;-33.956;151.076;2023-02-15T14:08:53;4.97;;;1.15;;
48647;SDS011;34437;-33.956;151.076;2023-02-15T14:11:44;2.75;;;1.10;;
48647;SDS011;34437;-33.956;151.076;2023-02-15T14:14:32;4.82;;;1.10;;
48647;SDS011;34437;-33.956;151.076;2023-02-15T14:17:37;4.72;;;1.10;;
48647;SDS011;34437;-33.956;151.076;2023-02-15T14:23:14;2.60;;;1.25;;
48647;SDS011;34437;-33.956;151.076;2023-02-15T14:25:53;3.28;;;1.30;;
48647;SDS011;34437;-33.956;151.076;2023-02-15T14:31:12;4.35;;;1.20;;
48647;SDS011;34437;-33.956;151.076;2023-02-15T14:33:37;2.83;;;1.15;;
48647;SDS011;34437;-33.956;151.076;2023-02-15T14:36:01;2.65;;;0.93;;
48647;SDS011;34437;-33.956;151.076;2023-02-15T14:40:57;2.60;;;1.17;;
48647;SDS011;34437;-33.956;151.076;2023-02-15T14:46:36;5.85;;;0.90;;
48647;SDS011;34437;-33.956;151.076;2023-02-15T14:49:23;2.03;;;1.08;;
48647;SDS011;34437;-33.956;151.076;2023-02-15T14:56:38;2.90;;;1.23;;
48647;SDS011;34437;-33.956;151.076;2023-02-15T14:59:22;4.30;;;1.38;;
48647;SDS011;34437;-33.956;151.076;2023-02-15T15:02:18;4.38;;;1.50;;
48647;SDS011;34437;-33.956;151.076;2023-02-15T15:04:43;4.13;;;1.35;;
48647;SDS011;34437;-33.956;151.076;2023-02-15T15:14:48;3.92;;;1.27;;
48647;SDS011;34437;-33.956;151.076;2023-02-15T15:22:19;2.45;;;1.42;;
48647;SDS011;34437;-33.956;151.076;2023-02-15T15:32:42;4.63;;;1.15;;
48647;SDS011;34437;-33.956;151.076;2023-02-15T15:46:25;2.38;;;1.13;;
48647;SDS011;34437;-33.956;151.076;2023-02-15T15:49:20;5.03;;;1.65;;
48647;SDS011;34437;-33.956;151.076;2023-02-15T15:51:44;3.45;;;1.20;;
48647;SDS011;34437;-33.956;151.076;2023-02-15T15:54:14;4.13;;;1.50;;
48647;SDS011;34437;-33.956;151.076;2023-02-15T15:56:42;3.75;;;1.52;;
48647;SDS011;34437;-33.956;151.076;2023-02-15T15:59:11;3.75;;;1.60;;
48647;SDS011;34437;-33.956;151.076;2023-02-15T16:01:44;3.25;;;1.15;;
48647;SDS011;34437;-33.956;151.076;2023-02-15T16:04:14;4.72;;;1.52;;
48647;SDS011;34437;-33.956;151.076;2023-02-15T16:06:51;3.90;;;1.40;;
48647;SDS011;34437;-33.956;151.076;2023-02-15T16:11:44;2.95;;;1.40;;
48647;SDS011;34437;-33.956;151.076;2023-02-15T16:14:35;2.83;;;1.10;;
48647;SDS011;34437;-33.956;151.076;2023-02-15T16:17:01;4.22;;;1.42;;
48647;SDS011;34437;-33.956;151.076;2023-02-15T16:19:28;3.30;;;1.35;;
48647;SDS011;34437;-33.956;151.076;2023-02-15T16:21:54;2.75;;;1.08;;
48647;SDS011;34437;-33.956;151.076;2023-02-15T16:24:33;2.78;;;1.20;;
48647;SDS011;34437;-33.956;151.076;2023-02-15T16:29:49;3.33;;;1.30;;
48647;SDS011;34437;-33.956;151.076;2023-02-15T16:32:16;2.45;;;1.42;;
48647;SDS011;34437;-33.956;151.076;2023-02-15T16:34:52;3.15;;;1.42;;
48647;SDS011;34437;-33.956;151.076;2023-02-15T16:37:17;3.35;;;1.13;;
48647;SDS011;34437;-33.956;151.076;2023-02-15T16:39:43;3.67;;;1.40;;
48647;SDS011;34437;-33.956;151.076;2023-02-15T16:42:08;2.20;;;1.13;;
48647;SDS011;34437;-33.956;151.076;2023-02-15T16:44:33;3.95;;;1.23;;
48647;SDS011;34437;-33.956;151.076;2023-02-15T16:46:55;3.03;;;1.25;;
48647;SDS011;34437;-33.956;151.076;2023-02-15T16:49:20;3.92;;;1.52;;
48647;SDS011;34437;-33.956;151.076;2023-02-15T16:52:02;2.90;;;1.17;;
48647;SDS011;34437;-33.956;151.076;2023-02-15T16:54:28;2.67;;;1.30;;
48647;SDS011;34437;-33.956;151.076;2023-02-15T16:56:52;2.97;;;1.23;;
48647;SDS011;34437;-33.956;151.076;2023-02-15T17:01:58;3.75;;;1.58;;
48647;SDS011;34437;-33.956;151.076;2023-02-15T17:06:43;3.75;;;1.80;;
48647;SDS011;34437;-33.956;151.076;2023-02-15T17:09:19;2.83;;;1.38;;
48647;SDS011;34437;-33.956;151.076;2023-02-15T17:11:46;2.03;;;1.10;;
48647;SDS011;34437;-33.956;151.076;2023-02-15T17:16:36;4.32;;;1.50;;
48647;SDS011;34437;-33.956;151.076;2023-02-15T17:19:53;3.67;;;1.10;;
48647;SDS011;34437;-33.956;151.076;2023-02-15T17:22:05;4.57;;;1.67;;
48647;SDS011;34437;-33.956;151.076;2023-02-15T17:24:33;2.08;;;1.00;;
48647;SDS011;34437;-33.956;151.076;2023-02-15T17:27:02;3.55;;;1.42;;
48647;SDS011;34437;-33.956;151.076;2023-02-15T17:29:39;2.67;;;1.13;;
48647;SDS011;34437;-33.956;151.076;2023-02-15T17:32:13;3.25;;;1.52;;
48647;SDS011;34437;-33.956;151.076;2023-02-15T17:34:51;4.88;;;1.42;;
48647;SDS011;34437;-33.956;151.076;2023-02-15T17:39:59;5.18;;;1.55;;